createdAt,value
2022-10-06T00:00:36.555Z,100806.13
2022-10-06T00:01:38.911Z,100811.94
2022-10-06T00:02:41.261Z,100806.94
2022-10-06T00:03:44.217Z,100803.84
2022-10-06T00:04:47.296Z,100809.13
2022-10-06T00:05:51.069Z,100815.25
2022-10-06T00:06:53.232Z,100811.34
2022-10-06T00:07:55.647Z,100811.06
2022-10-06T00:08:57.842Z,100818.00
2022-10-06T00:10:00.039Z,100811.59
2022-10-06T00:11:05.443Z,100804.91
2022-10-06T00:12:09.324Z,100808.25
2022-10-06T00:13:11.571Z,100810.72
2022-10-06T00:14:13.786Z,100812.69
2022-10-06T00:15:18.840Z,100811.56
2022-10-06T00:16:22.594Z,100811.28
2022-10-06T00:17:24.882Z,100812.09
2022-10-06T00:18:29.198Z,100812.94
2022-10-06T00:19:31.806Z,100807.34
2022-10-06T00:20:34.044Z,100811.28
2022-10-06T00:21:36.293Z,100811.81
2022-10-06T00:22:48.832Z,100818.25
2022-10-06T00:23:51.012Z,100805.41
2022-10-06T00:24:53.210Z,100811.81
2022-10-06T00:25:55.632Z,100811.81
2022-10-06T00:26:57.995Z,100815.47
2022-10-06T00:28:00.369Z,100811.81
2022-10-06T00:29:02.686Z,100811.81
2022-10-06T00:30:06.989Z,100816.56
2022-10-06T00:31:11.220Z,100815.72
2022-10-06T00:32:14.091Z,100806.53
2022-10-06T00:33:17.905Z,100813.78
2022-10-06T00:34:21.599Z,100816.88
2022-10-06T00:35:26.226Z,100818.81
2022-10-06T00:36:28.660Z,100813.22
2022-10-06T00:37:35.602Z,100808.75
2022-10-06T00:38:37.994Z,100814.34
2022-10-06T00:39:40.227Z,100806.28
2022-10-06T00:40:52.021Z,100811.03
2022-10-06T00:41:54.241Z,100801.81
2022-10-06T00:42:59.927Z,100793.44
2022-10-06T00:44:02.171Z,100801.00
2022-10-06T00:45:06.633Z,100797.38
2022-10-06T00:46:15.060Z,100801.28
2022-10-06T00:47:20.495Z,100804.06
2022-10-06T00:48:26.185Z,100797.66
2022-10-06T00:49:34.257Z,100793.22
2022-10-06T00:50:36.874Z,100805.47
2022-10-06T00:51:42.951Z,100795.44
2022-10-06T00:52:45.381Z,100804.94
2022-10-06T00:53:51.814Z,100804.94
2022-10-06T00:54:54.074Z,100808.31
2022-10-06T00:55:57.443Z,100814.69
2022-10-06T00:56:59.744Z,100805.50
2022-10-06T00:58:02.281Z,100806.63
2022-10-06T00:59:06.859Z,100802.16
2022-10-06T01:00:09.610Z,100815.28
2022-10-06T01:01:13.164Z,100804.44
2022-10-06T01:02:15.407Z,100799.97
2022-10-06T01:03:24.069Z,100801.09
2022-10-06T01:04:27.970Z,100809.44
2022-10-06T01:05:35.575Z,100806.13
2022-10-06T01:06:54.394Z,100798.88
2022-10-06T01:07:56.848Z,100806.41
2022-10-06T01:08:59.082Z,100803.91
2022-10-06T01:10:01.676Z,100802.22
2022-10-06T01:11:13.318Z,100806.16
2022-10-06T01:12:16.320Z,100810.06
2022-10-06T01:13:19.235Z,100805.59
2022-10-06T01:14:23.303Z,100808.97
2022-10-06T01:15:30.268Z,100812.88
2022-10-06T01:16:37.938Z,100819.56
2022-10-06T01:17:46.545Z,100821.53
2022-10-06T01:18:49.194Z,100825.72
2022-10-06T01:19:57.412Z,100820.16
2022-10-06T01:21:09.389Z,100825.44
2022-10-06T01:22:17.361Z,100819.31
2022-10-06T01:23:20.442Z,100824.06
2022-10-06T01:24:23.191Z,100819.91
2022-10-06T01:25:25.581Z,100824.66
2022-10-06T01:26:30.905Z,100820.75
2022-10-06T01:27:35.051Z,100817.97
2022-10-06T01:28:39.354Z,100826.91
2022-10-06T01:29:41.802Z,100821.63
2022-10-06T01:30:54.818Z,100819.13
2022-10-06T01:31:59.708Z,100824.13
2022-10-06T01:33:02.111Z,100821.94
2022-10-06T01:34:04.401Z,100826.66
2022-10-06T01:35:08.556Z,100814.97
2022-10-06T01:36:10.892Z,100826.13
2022-10-06T01:37:13.097Z,100822.78
2022-10-06T01:38:17.478Z,100820.28
2022-10-06T01:39:21.447Z,100822.50
2022-10-06T01:40:25.662Z,100821.94
2022-10-06T01:41:27.988Z,100827.78
2022-10-06T01:42:33.111Z,100820.84
2022-10-06T01:43:37.528Z,100828.63
2022-10-06T01:44:41.228Z,100820.56
2022-10-06T01:45:43.465Z,100818.34
2022-10-06T01:46:45.794Z,100819.75
2022-10-06T01:47:48.486Z,100824.47
2022-10-06T01:48:50.760Z,100830.31
2022-10-06T01:49:53.057Z,100829.75
2022-10-06T01:50:55.920Z,100834.81
2022-10-06T01:51:58.213Z,100830.34
2022-10-06T01:53:00.540Z,100841.47
2022-10-06T01:54:03.586Z,100832.56
2022-10-06T01:55:06.650Z,100835.63
2022-10-06T01:56:11.282Z,100838.41
2022-10-06T01:57:13.943Z,100835.09
2022-10-06T01:58:16.420Z,100840.91
2022-10-06T01:59:19.000Z,100847.63
2022-10-06T02:00:22.050Z,100846.78
2022-10-06T02:01:24.303Z,100851.53
2022-10-06T02:02:31.752Z,100841.50
2022-10-06T02:03:35.933Z,100850.13
2022-10-06T02:04:38.265Z,100848.47
2022-10-06T02:05:40.562Z,100850.41
2022-10-06T02:06:43.273Z,100840.41
2022-10-06T02:07:45.567Z,100848.75
2022-10-06T02:08:50.608Z,100850.72
2022-10-06T02:09:53.466Z,100848.19
2022-10-06T02:10:56.589Z,100852.94
2022-10-06T02:12:00.574Z,100857.66
2022-10-06T02:13:04.947Z,100855.72
2022-10-06T02:14:07.145Z,100856.00
2022-10-06T02:15:12.829Z,100861.28
2022-10-06T02:16:15.268Z,100865.16
2022-10-06T02:17:19.017Z,100853.22
2022-10-06T02:18:21.171Z,100858.78
2022-10-06T02:19:24.326Z,100862.66
2022-10-06T02:20:26.543Z,100867.41
2022-10-06T02:21:28.742Z,100863.78
2022-10-06T02:22:31.460Z,100868.53
2022-10-06T02:23:33.863Z,100866.56
2022-10-06T02:24:36.138Z,100869.34
2022-10-06T02:25:38.552Z,100864.06
2022-10-06T02:26:40.908Z,100859.31
2022-10-06T02:27:43.239Z,100864.34
2022-10-06T02:28:47.316Z,100868.81
2022-10-06T02:29:53.764Z,100867.94
2022-10-06T02:31:08.475Z,100871.84
2022-10-06T02:32:12.101Z,100868.25
2022-10-06T02:33:15.024Z,100868.53
2022-10-06T02:34:17.228Z,100868.53
2022-10-06T02:35:19.464Z,100876.88
2022-10-06T02:36:25.003Z,100867.41
2022-10-06T02:37:27.329Z,100870.44
2022-10-06T02:38:30.851Z,100873.25
2022-10-06T02:39:36.951Z,100868.81
2022-10-06T02:40:39.205Z,100877.16
2022-10-06T02:41:41.369Z,100869.91
2022-10-06T02:42:45.274Z,100871.03
2022-10-06T02:43:48.907Z,100871.03
2022-10-06T02:44:52.381Z,100868.25
2022-10-06T02:45:59.711Z,100866.28
2022-10-06T02:47:01.915Z,100870.19
2022-10-06T02:48:04.192Z,100865.47
2022-10-06T02:49:06.545Z,100861.00
2022-10-06T02:50:10.923Z,100857.13
2022-10-06T02:51:16.300Z,100858.22
2022-10-06T02:52:19.721Z,100856.28
2022-10-06T02:53:25.812Z,100855.44
2022-10-06T02:54:28.035Z,100857.13
2022-10-06T02:55:31.304Z,100855.44
2022-10-06T02:56:35.735Z,100860.72
2022-10-06T02:57:38.351Z,100862.69
2022-10-06T02:58:42.907Z,100869.91
2022-10-06T02:59:47.905Z,100867.13
2022-10-06T03:00:50.081Z,100876.31
2022-10-06T03:01:52.684Z,100885.50
2022-10-06T03:02:57.581Z,100884.66
2022-10-06T03:04:00.027Z,100881.59
2022-10-06T03:05:02.285Z,100892.72
2022-10-06T03:06:22.044Z,100893.56
2022-10-06T03:07:30.229Z,100890.50
2022-10-06T03:08:33.596Z,100891.31
2022-10-06T03:09:36.426Z,100893.00
2022-10-06T03:10:38.744Z,100892.19
2022-10-06T03:11:42.886Z,100903.03
2022-10-06T03:12:48.704Z,100884.38
2022-10-06T03:13:52.913Z,100894.69
2022-10-06T03:14:57.435Z,100892.72
2022-10-06T03:15:59.868Z,100893.56
2022-10-06T03:17:02.110Z,100895.25
2022-10-06T03:18:06.692Z,100897.75
2022-10-06T03:19:10.149Z,100894.09
2022-10-06T03:20:12.962Z,100903.03
2022-10-06T03:21:16.116Z,100899.97
2022-10-06T03:22:18.409Z,100903.59
2022-10-06T03:23:26.012Z,100907.47
2022-10-06T03:24:28.274Z,100902.44
2022-10-06T03:25:33.092Z,100908.59
2022-10-06T03:26:38.845Z,100906.63
2022-10-06T03:27:41.278Z,100906.63
2022-10-06T03:28:44.919Z,100912.19
2022-10-06T03:29:47.120Z,100908.31
2022-10-06T03:30:50.936Z,100914.44
2022-10-06T03:31:53.839Z,100910.50
2022-10-06T03:32:56.133Z,100916.09
2022-10-06T03:33:58.607Z,100926.09
2022-10-06T03:35:03.410Z,100924.72
2022-10-06T03:36:08.463Z,100925.56
2022-10-06T03:37:10.829Z,100930.00
2022-10-06T03:38:13.720Z,100928.91
2022-10-06T03:39:15.974Z,100923.31
2022-10-06T03:40:18.662Z,100922.22
2022-10-06T03:41:25.272Z,100923.31
2022-10-06T03:42:27.751Z,100926.97
2022-10-06T03:43:30.170Z,100931.38
2022-10-06T03:44:35.088Z,100927.50
2022-10-06T03:45:37.873Z,100933.63
2022-10-06T03:46:40.217Z,100937.53
2022-10-06T03:47:43.244Z,100945.59
2022-10-06T03:48:46.412Z,100943.66
2022-10-06T03:49:48.622Z,100948.94
2022-10-06T03:50:56.191Z,100936.94
2022-10-06T03:51:58.495Z,100948.94
2022-10-06T03:53:05.529Z,100946.97
2022-10-06T03:54:15.138Z,100953.41
2022-10-06T03:55:19.975Z,100955.03
2022-10-06T03:56:26.740Z,100955.91
2022-10-06T03:57:28.971Z,100949.47
2022-10-06T03:58:34.489Z,100957.84
2022-10-06T03:59:36.965Z,100953.94
2022-10-06T04:00:40.738Z,100963.16
2022-10-06T04:01:45.655Z,100964.78
2022-10-06T04:02:50.476Z,100958.41
2022-10-06T04:03:55.020Z,100963.97
2022-10-06T04:04:57.244Z,100962.88
2022-10-06T04:06:02.856Z,100962.88
2022-10-06T04:07:05.059Z,100962.88
2022-10-06T04:08:07.258Z,100966.47
2022-10-06T04:09:15.639Z,100964.53
2022-10-06T04:10:18.519Z,100968.44
2022-10-06T04:11:44.895Z,100970.38
2022-10-06T04:12:47.411Z,100963.69
2022-10-06T04:13:56.807Z,100974.28
2022-10-06T04:15:00.200Z,100970.66
2022-10-06T04:16:18.731Z,100973.44
2022-10-06T04:17:20.951Z,100979.00
2022-10-06T04:18:23.794Z,100974.53
2022-10-06T04:19:26.224Z,100986.81
2022-10-06T04:20:30.542Z,100974.81
2022-10-06T04:21:36.831Z,100974.53
2022-10-06T04:22:40.724Z,100976.78
2022-10-06T04:23:43.857Z,100972.31
2022-10-06T04:24:46.198Z,100976.78
2022-10-06T04:25:51.403Z,100981.50
2022-10-06T04:27:16.104Z,100986.25
2022-10-06T04:28:21.116Z,100983.75
2022-10-06T04:29:23.796Z,100982.66
2022-10-06T04:30:30.407Z,100985.69
2022-10-06T04:31:36.810Z,100979.84
2022-10-06T04:32:40.681Z,100983.47
2022-10-06T04:33:45.863Z,100982.66
2022-10-06T04:34:49.402Z,100982.91
2022-10-06T04:35:59.733Z,100977.31
2022-10-06T04:37:02.548Z,100978.47
2022-10-06T04:38:04.768Z,100979.28
2022-10-06T04:39:08.868Z,100989.31
2022-10-06T04:40:11.385Z,100980.13
2022-10-06T04:41:15.895Z,100983.75
2022-10-06T04:42:18.281Z,100987.06
2022-10-06T04:43:20.869Z,100983.47
2022-10-06T04:44:23.054Z,100994.31
2022-10-06T04:45:25.577Z,100997.94
2022-10-06T04:46:45.187Z,100988.47
2022-10-06T04:47:50.229Z,100991.00
2022-10-06T04:48:54.094Z,100993.50
2022-10-06T04:49:59.071Z,101009.91
2022-10-06T04:51:03.852Z,100999.59
2022-10-06T04:52:06.708Z,101001.28
2022-10-06T04:53:11.736Z,101002.94
2022-10-06T04:54:14.856Z,101004.88
2022-10-06T04:55:17.179Z,101006.28
2022-10-06T04:56:24.727Z,101011.59
2022-10-06T04:57:28.357Z,101011.31
2022-10-06T04:58:36.032Z,101015.81
2022-10-06T04:59:59.447Z,101014.66
2022-10-06T05:01:12.891Z,101023.59
2022-10-06T05:02:15.297Z,101024.16
2022-10-06T05:03:18.712Z,101026.66
2022-10-06T05:04:21.158Z,101035.84
2022-10-06T05:05:23.738Z,101031.66
2022-10-06T05:06:30.659Z,101035.28
2022-10-06T05:07:35.740Z,101039.72
2022-10-06T05:08:38.614Z,101035.00
2022-10-06T05:09:41.144Z,101046.69
2022-10-06T05:10:44.234Z,101047.53
2022-10-06T05:11:48.082Z,101043.38
2022-10-06T05:12:53.305Z,101046.97
2022-10-06T05:13:57.615Z,101049.47
2022-10-06T05:15:01.392Z,101054.75
2022-10-06T05:16:05.681Z,101050.59
2022-10-06T05:17:08.609Z,101063.41
2022-10-06T05:18:12.453Z,101063.13
2022-10-06T05:19:14.797Z,101065.91
2022-10-06T05:20:18.095Z,101066.75
2022-10-06T05:21:24.178Z,101061.72
2022-10-06T05:22:27.143Z,101064.25
2022-10-06T05:23:30.716Z,101073.16
2022-10-06T05:24:33.020Z,101064.50
2022-10-06T05:25:35.254Z,101073.72
2022-10-06T05:26:37.593Z,101072.59
2022-10-06T05:27:43.801Z,101073.44
2022-10-06T05:28:46.603Z,101078.44
2022-10-06T05:29:48.823Z,101076.50
2022-10-06T05:31:02.791Z,101075.34
2022-10-06T05:32:05.742Z,101078.72
2022-10-06T05:33:11.203Z,101091.25
2022-10-06T05:34:14.145Z,101086.50
2022-10-06T05:35:16.455Z,101088.19
2022-10-06T05:36:21.474Z,101092.66
2022-10-06T05:37:25.745Z,101090.69
2022-10-06T05:38:30.092Z,101096.81
2022-10-06T05:39:32.485Z,101080.91
2022-10-06T05:40:35.440Z,101099.31
2022-10-06T05:41:38.263Z,101092.63
2022-10-06T05:42:43.776Z,101102.69
2022-10-06T05:43:47.021Z,101103.50
2022-10-06T05:44:49.224Z,101103.22
2022-10-06T05:45:56.992Z,101102.09
2022-10-06T05:46:59.208Z,101109.91
2022-10-06T05:48:01.476Z,101113.53
2022-10-06T05:49:08.153Z,101109.63
2022-10-06T05:50:10.716Z,101111.28
2022-10-06T05:51:13.689Z,101116.03
2022-10-06T05:52:16.407Z,101113.25
2022-10-06T05:53:18.653Z,101123.00
2022-10-06T05:54:21.007Z,101119.09
2022-10-06T05:55:23.995Z,101124.69
2022-10-06T05:56:35.049Z,101123.56
2022-10-06T05:57:38.314Z,101122.44
2022-10-06T05:58:42.471Z,101119.38
2022-10-06T05:59:45.182Z,101131.34
2022-10-06T06:00:47.459Z,101127.47
2022-10-06T06:01:49.788Z,101127.19
2022-10-06T06:03:09.525Z,101138.31
2022-10-06T06:04:13.384Z,101139.16
2022-10-06T06:05:20.317Z,101140.00
2022-10-06T06:06:35.867Z,101142.78
2022-10-06T06:07:41.148Z,101144.47
2022-10-06T06:08:44.079Z,101156.16
2022-10-06T06:09:46.583Z,101178.47
2022-10-06T06:10:48.870Z,101196.31
2022-10-06T06:11:54.890Z,101200.50
2022-10-06T06:13:05.616Z,101203.03
2022-10-06T06:14:16.746Z,101210.53
2022-10-06T06:15:37.646Z,101220.00
2022-10-06T06:16:42.022Z,101216.69
2022-10-06T06:17:44.304Z,101225.34
2022-10-06T06:18:48.186Z,101227.56
2022-10-06T06:19:50.456Z,101234.53
2022-10-06T06:21:06.731Z,101244.84
2022-10-06T06:22:08.996Z,101248.47
2022-10-06T06:23:14.349Z,101254.59
2022-10-06T06:24:16.800Z,101252.91
2022-10-06T06:25:19.403Z,101264.88
2022-10-06T06:26:27.084Z,101270.44
2022-10-06T06:27:29.640Z,101269.06
2022-10-06T06:28:32.643Z,101274.38
2022-10-06T06:29:35.383Z,101274.06
2022-10-06T06:30:37.902Z,101275.16
2022-10-06T06:31:43.857Z,101286.31
2022-10-06T06:32:46.263Z,101295.50
2022-10-06T06:33:51.881Z,101304.66
2022-10-06T06:34:54.128Z,101307.16
2022-10-06T06:35:58.532Z,101311.59
2022-10-06T06:37:07.465Z,101321.63
2022-10-06T06:38:12.013Z,101327.97
2022-10-06T06:39:16.263Z,101337.16
2022-10-06T06:40:19.763Z,101335.44
2022-10-06T06:41:29.728Z,101343.47
2022-10-06T06:42:39.200Z,101349.59
2022-10-06T06:44:11.573Z,101343.69
2022-10-06T06:45:17.911Z,101354.81
2022-10-06T06:47:41.008Z,101361.16
2022-10-06T06:48:43.405Z,101361.41
2022-10-06T06:49:47.641Z,101362.19
2022-10-06T06:50:57.299Z,101362.41
2022-10-06T06:51:59.763Z,101373.50
2022-10-06T06:53:03.548Z,101386.28
2022-10-06T06:54:09.959Z,101389.03
2022-10-06T06:55:15.011Z,101381.72
2022-10-06T06:56:17.929Z,101397.28
2022-10-06T06:57:20.231Z,101396.94
2022-10-06T06:58:25.526Z,101406.09
2022-10-06T06:59:27.833Z,101410.47
2022-10-06T07:00:36.016Z,101415.72
2022-10-06T07:01:44.630Z,101412.03
2022-10-06T07:02:48.245Z,101420.31
2022-10-06T07:03:57.898Z,101419.19
2022-10-06T07:05:01.972Z,101428.88
2022-10-06T07:06:09.585Z,101428.00
2022-10-06T07:07:12.325Z,101425.97
2022-10-06T07:08:16.296Z,101431.25
2022-10-06T07:09:18.659Z,101430.91
2022-10-06T07:10:20.871Z,101426.72
2022-10-06T07:11:30.443Z,101427.22
2022-10-06T07:12:34.587Z,101427.19
2022-10-06T07:13:36.794Z,101431.31
2022-10-06T07:14:58.945Z,101437.38
2022-10-06T07:16:20.856Z,101439.81
2022-10-06T07:17:41.962Z,101427.81
2022-10-06T07:19:03.927Z,101437.50
2022-10-06T07:20:25.009Z,101451.94
2022-10-06T07:21:45.913Z,101449.66
2022-10-06T07:23:06.914Z,101434.34
2022-10-06T07:24:28.194Z,101446.78
2022-10-06T07:25:31.119Z,101445.63
2022-10-06T07:26:37.545Z,101442.28
2022-10-06T07:27:42.518Z,101448.94
2022-10-06T07:28:46.352Z,101451.97
2022-10-06T07:29:55.833Z,101456.94
2022-10-06T07:31:00.731Z,101458.03
2022-10-06T07:32:05.126Z,101454.41
2022-10-06T07:33:07.353Z,101461.88
2022-10-06T07:34:09.633Z,101464.94
2022-10-06T07:35:12.158Z,101464.66
2022-10-06T07:36:16.856Z,101460.22
2022-10-06T07:37:20.222Z,101466.63
2022-10-06T07:38:26.376Z,101470.22
2022-10-06T07:39:32.104Z,101474.94
2022-10-06T07:40:35.233Z,101475.78
2022-10-06T07:41:37.545Z,101482.19
2022-10-06T07:42:52.049Z,101490.53
2022-10-06T07:44:02.475Z,101492.22
2022-10-06T07:45:26.910Z,101484.97
2022-10-06T07:46:29.105Z,101491.34
2022-10-06T07:47:41.254Z,101483.88
2022-10-06T07:48:46.811Z,101484.69
2022-10-06T07:49:49.131Z,101488.31
2022-10-06T07:50:52.562Z,101494.47
2022-10-06T07:52:08.617Z,101487.22
2022-10-06T07:53:10.872Z,101491.69
2022-10-06T07:54:18.671Z,101496.16
2022-10-06T07:56:06.852Z,101496.16
2022-10-06T07:57:17.843Z,101502.53
2022-10-06T07:58:24.457Z,101506.19
2022-10-06T07:59:26.929Z,101502.28
2022-10-06T08:00:29.227Z,101507.84
2022-10-06T08:01:31.495Z,101504.22
2022-10-06T08:02:35.818Z,101496.72
2022-10-06T08:03:39.467Z,101507.84
2022-10-06T08:04:41.633Z,101512.28
2022-10-06T08:05:48.019Z,101511.22
2022-10-06T08:06:50.307Z,101511.22
2022-10-06T08:07:53.512Z,101514.81
2022-10-06T08:08:56.778Z,101515.94
2022-10-06T08:09:58.955Z,101515.66
2022-10-06T08:11:01.897Z,101512.03
2022-10-06T08:12:24.327Z,101504.56
2022-10-06T08:13:27.040Z,101515.41
2022-10-06T08:14:29.334Z,101516.25
2022-10-06T08:15:31.616Z,101516.25
2022-10-06T08:16:33.872Z,101517.94
2022-10-06T08:17:36.755Z,101513.22
2022-10-06T08:18:46.458Z,101512.09
2022-10-06T08:19:49.467Z,101512.72
2022-10-06T08:20:51.678Z,101521.88
2022-10-06T08:21:54.002Z,101529.13
2022-10-06T08:22:56.641Z,101528.03
2022-10-06T08:23:59.307Z,101522.22
2022-10-06T08:25:06.809Z,101523.63
2022-10-06T08:26:11.348Z,101530.03
2022-10-06T08:27:14.507Z,101525.06
2022-10-06T08:28:16.758Z,101527.56
2022-10-06T08:29:19.101Z,101528.19
2022-10-06T08:30:21.390Z,101525.97
2022-10-06T08:31:24.264Z,101529.34
2022-10-06T08:32:26.564Z,101529.94
2022-10-06T08:33:28.718Z,101532.19
2022-10-06T08:34:31.082Z,101533.88
2022-10-06T08:35:33.941Z,101539.19
2022-10-06T08:36:36.155Z,101542.56
2022-10-06T08:37:38.431Z,101545.63
2022-10-06T08:38:41.381Z,101540.06
2022-10-06T08:39:43.675Z,101546.22
2022-10-06T08:40:46.916Z,101544.88
2022-10-06T08:41:54.776Z,101544.63
2022-10-06T08:43:01.091Z,101553.56
2022-10-06T08:44:18.702Z,101549.66
2022-10-06T08:45:39.003Z,101556.91
2022-10-06T08:46:49.568Z,101558.31
2022-10-06T08:48:00.564Z,101561.69
2022-10-06T08:49:03.653Z,101562.25
2022-10-06T08:50:12.931Z,101571.47
2022-10-06T08:51:29.509Z,101572.03
2022-10-06T08:53:06.516Z,101565.09
2022-10-06T08:54:14.957Z,101561.25
2022-10-06T08:55:32.345Z,101565.44
2022-10-06T08:56:54.464Z,101572.69
2022-10-06T08:58:34.958Z,101571.06
2022-10-06T08:59:37.582Z,101575.28
2022-10-06T09:00:39.870Z,101576.09
2022-10-06T09:01:47.812Z,101573.91
2022-10-06T09:02:50.930Z,101567.25
2022-10-06T09:04:01.895Z,101577.84
2022-10-06T09:05:06.163Z,101570.94
2022-10-06T09:06:38.205Z,101573.44
2022-10-06T09:07:59.476Z,101574.06
2022-10-06T09:09:43.651Z,101579.97
2022-10-06T09:11:03.771Z,101579.44
2022-10-06T09:12:27.543Z,101582.81
2022-10-06T09:14:04.300Z,101573.13
2022-10-06T09:15:15.668Z,101572.84
2022-10-06T09:16:22.193Z,101582.63
2022-10-06T09:17:34.399Z,101575.09
2022-10-06T09:19:06.731Z,101584.59
2022-10-06T09:20:22.769Z,101580.44
2022-10-06T09:21:35.035Z,101584.66
2022-10-06T09:22:37.778Z,101584.38
2022-10-06T09:23:47.863Z,101592.25
2022-10-06T09:24:59.109Z,101588.09
2022-10-06T09:26:02.794Z,101592.03
2022-10-06T09:27:33.761Z,101591.50
2022-10-06T09:28:37.320Z,101591.81
2022-10-06T09:29:39.627Z,101591.28
2022-10-06T09:30:44.116Z,101587.13
2022-10-06T09:31:51.142Z,101591.09
2022-10-06T09:33:02.847Z,101599.50
2022-10-06T09:34:26.697Z,101598.69
2022-10-06T09:35:35.118Z,101598.75
2022-10-06T09:37:01.732Z,101603.28
2022-10-06T09:38:08.806Z,101605.25
2022-10-06T09:39:26.426Z,101608.94
2022-10-06T09:40:51.445Z,101603.16
2022-10-06T09:41:54.505Z,101600.16
2022-10-06T09:42:57.362Z,101595.47
2022-10-06T09:44:03.507Z,101600.00
2022-10-06T09:45:14.721Z,101612.31
2022-10-06T09:46:28.830Z,101601.25
2022-10-06T09:47:42.181Z,101608.28
2022-10-06T09:48:44.450Z,101598.31
2022-10-06T09:50:04.855Z,101610.34
2022-10-06T09:51:16.025Z,101604.00
2022-10-06T09:52:18.586Z,101602.38
2022-10-06T09:53:21.861Z,101600.50
2022-10-06T09:54:24.681Z,101600.84
2022-10-06T09:55:37.879Z,101591.41
2022-10-06T09:57:07.353Z,101604.56
2022-10-06T09:58:23.438Z,101606.00
2022-10-06T09:59:35.067Z,101603.25
2022-10-06T10:00:56.682Z,101603.56
2022-10-06T10:02:00.395Z,101602.19
2022-10-06T10:03:06.743Z,101615.06
2022-10-06T10:04:20.643Z,101607.53
2022-10-06T10:05:25.193Z,101614.53
2022-10-06T10:06:29.823Z,101610.59
2022-10-06T10:07:33.280Z,101613.38
2022-10-06T10:10:25.071Z,101610.56
2022-10-06T10:11:46.968Z,101613.91
2022-10-06T10:12:54.084Z,101622.00
2022-10-06T10:13:57.967Z,101624.75
2022-10-06T10:15:23.223Z,101621.69
2022-10-06T10:16:27.914Z,101619.97
2022-10-06T10:17:32.376Z,101620.75
2022-10-06T10:18:35.548Z,101621.56
2022-10-06T10:19:43.288Z,101622.41
2022-10-06T10:20:52.574Z,101622.38
2022-10-06T10:21:57.887Z,101632.16
2022-10-06T10:23:03.683Z,101636.06
2022-10-06T10:24:19.509Z,101628.50
2022-10-06T10:25:44.806Z,101624.56
2022-10-06T10:27:08.893Z,101629.88
2022-10-06T10:28:11.109Z,101628.19
2022-10-06T10:29:22.234Z,101636.34
2022-10-06T10:30:24.784Z,101633.78
2022-10-06T10:32:02.850Z,101633.78
2022-10-06T10:33:15.528Z,101645.56
2022-10-06T10:34:43.928Z,101638.28
2022-10-06T10:35:52.442Z,101630.44
2022-10-06T10:37:04.340Z,101627.34
2022-10-06T10:38:15.756Z,101625.13
2022-10-06T10:39:44.216Z,101630.16
2022-10-06T10:40:51.602Z,101631.53
2022-10-06T10:41:56.708Z,101637.41
2022-10-06T10:43:07.871Z,101632.34
2022-10-06T10:44:15.124Z,101638.78
2022-10-06T10:45:29.432Z,101642.41
2022-10-06T10:46:43.785Z,101633.72
2022-10-06T10:47:49.247Z,101635.41
2022-10-06T10:48:54.555Z,101638.47
2022-10-06T10:50:29.633Z,101639.00
2022-10-06T10:51:37.511Z,101637.59
2022-10-06T10:52:44.506Z,101635.03
2022-10-06T10:53:51.700Z,101644.84
2022-10-06T10:54:57.061Z,101642.59
2022-10-06T10:56:01.164Z,101643.97
2022-10-06T10:57:04.158Z,101642.84
2022-10-06T10:58:17.836Z,101649.81
2022-10-06T10:59:34.620Z,101649.56
2022-10-06T11:00:41.782Z,101647.88
2022-10-06T11:01:52.856Z,101636.38
2022-10-06T11:03:01.219Z,101645.06
2022-10-06T11:04:04.116Z,101643.38
2022-10-06T11:05:43.240Z,101652.38
2022-10-06T11:06:57.372Z,101652.69
2022-10-06T11:08:02.635Z,101658.53
2022-10-06T11:09:10.129Z,101655.22
2022-10-06T11:10:20.124Z,101656.94
2022-10-06T11:11:35.223Z,101660.28
2022-10-06T11:13:14.738Z,101666.50
2022-10-06T11:14:53.332Z,101658.94
2022-10-06T11:16:18.911Z,101653.09
2022-10-06T11:17:25.549Z,101651.72
2022-10-06T11:19:05.589Z,101652.25
2022-10-06T11:20:46.423Z,101652.00
2022-10-06T11:21:58.226Z,101652.28
2022-10-06T11:23:12.443Z,101655.09
2022-10-06T11:24:28.851Z,101643.31
2022-10-06T11:25:51.196Z,101649.19
2022-10-06T11:27:50.416Z,101643.91
2022-10-06T11:29:07.741Z,101645.31
2022-10-06T11:30:16.311Z,101651.50
2022-10-06T11:31:30.474Z,101651.53
2022-10-06T11:32:49.339Z,101657.97
2022-10-06T11:33:54.340Z,101657.97
2022-10-06T11:34:56.924Z,101655.22
2022-10-06T11:36:01.403Z,101658.59
2022-10-06T11:37:25.418Z,101656.91
2022-10-06T11:38:36.014Z,101656.66
2022-10-06T11:39:53.852Z,101649.69
2022-10-06T11:41:14.436Z,101656.94
2022-10-06T11:44:12.987Z,101656.69
2022-10-06T11:45:18.319Z,101658.63
2022-10-06T11:47:56.403Z,101659.22
2022-10-06T11:49:30.448Z,101652.78
2022-10-06T11:50:42.802Z,101659.22
2022-10-06T11:51:45.124Z,101653.63
2022-10-06T11:52:47.374Z,101649.44
2022-10-06T11:53:49.610Z,101654.47
2022-10-06T11:54:54.471Z,101651.66
2022-10-06T11:56:15.715Z,101650.84
2022-10-06T11:57:30.323Z,101651.66
2022-10-06T11:58:56.383Z,101658.09
2022-10-06T12:00:04.842Z,101644.41
2022-10-06T12:01:36.410Z,101659.50
2022-10-06T12:02:40.896Z,101654.75
2022-10-06T12:03:48.117Z,101653.06
2022-10-06T12:05:55.663Z,101653.06
2022-10-06T12:06:56.692Z,101653.06
2022-10-06T12:07:59.291Z,101650.25
2022-10-06T12:09:04.628Z,101658.66
2022-10-06T12:10:47.693Z,101652.22
2022-10-06T12:11:51.240Z,101657.84
2022-10-06T12:13:11.395Z,101661.75
2022-10-06T12:18:21.321Z,101657.00
2022-10-06T12:19:31.105Z,101665.13
2022-10-06T12:20:56.062Z,101667.34
2022-10-06T12:22:07.633Z,101666.78
2022-10-06T12:23:09.777Z,101664.53
2022-10-06T12:24:29.614Z,101665.94
2022-10-06T12:25:37.718Z,101667.31
2022-10-06T12:26:49.959Z,101661.75
2022-10-06T12:28:11.063Z,101659.22
2022-10-06T12:29:32.126Z,101661.50
2022-10-06T12:30:58.824Z,101657.56
2022-10-06T12:32:22.399Z,101657.00
2022-10-06T12:33:38.367Z,101657.28
2022-10-06T12:34:48.107Z,101642.75
2022-10-06T12:36:02.309Z,101648.63
2022-10-06T12:37:42.937Z,101644.13
2022-10-06T12:39:05.573Z,101654.50
2022-10-06T12:40:38.790Z,101654.50
2022-10-06T12:42:04.476Z,101652.00
2022-10-06T12:43:13.585Z,101655.59
2022-10-06T12:44:31.252Z,101655.59
2022-10-06T12:45:33.769Z,101654.78
2022-10-06T12:46:44.989Z,101657.59
2022-10-06T12:47:47.532Z,101657.59
2022-10-06T12:49:22.261Z,101650.03
2022-10-06T12:50:26.401Z,101651.13
2022-10-06T12:51:39.199Z,101662.88
2022-10-06T12:52:48.851Z,101658.41
2022-10-06T12:54:25.295Z,101664.00
2022-10-06T12:55:38.759Z,101655.59
2022-10-06T12:56:43.166Z,101658.69
2022-10-06T12:57:47.981Z,101647.50
2022-10-06T12:58:50.176Z,101652.25
2022-10-06T12:59:52.354Z,101655.91
2022-10-06T13:01:04.100Z,101653.09
2022-10-06T13:02:13.052Z,101653.38
2022-10-06T13:03:25.662Z,101652.25